Terminal Aerodrome Forecast
Issued by NWS

Home | Current Version | Previous Version | Text Only | Print | Product List | Glossary On
Versions: 1 2 3 4 5 6 7 8 9 10 11 12 13
000
FTUS45 KRIW 051133
TAFBPI
TAF
KBPI 051133Z 0512/0612 19008KT P6SM VCSH BKN080
     FM051600 20018G28KT P6SM VCTS SCT060 BKN080CB
     FM052000 25024G37KT P6SM VCTS SCT050 BKN080CB
     FM060100 30022G30KT P6SM SCT080
     FM060500 34009KT P6SM SKC=

USA.gov is the U.S. government's official web portal to all federal, state and local government web resources and services.